sensor_id;sensor_type;location;lat;lon;timestamp;pressure;altitude;pressure_sealevel;temperature;humidity
498;BME280;39559;48.630;9.162;2023-02-02T00:00:06;98101.91;;;2.82;100.00
498;BME280;39559;48.630;9.162;2023-02-02T00:02:31;98089.91;;;2.80;100.00
498;BME280;39559;48.630;9.162;2023-02-02T00:04:57;98094.19;;;2.79;100.00
498;BME280;39559;48.630;9.162;2023-02-02T00:07:23;98088.19;;;2.83;100.00
498;BME280;39559;48.630;9.162;2023-02-02T00:09:48;98081.38;;;2.84;100.00
498;BME280;39559;48.630;9.162;2023-02-02T00:12:14;98084.78;;;2.83;100.00
498;BME280;39559;48.630;9.162;2023-02-02T00:14:39;98093.34;;;2.86;100.00
498;BME280;39559;48.630;9.162;2023-02-02T00:19:18;98085.63;;;2.86;100.00
498;BME280;39559;48.630;9.162;2023-02-02T00:21:44;98077.94;;;2.85;100.00
498;BME280;39559;48.630;9.162;2023-02-02T00:24:18;98081.34;;;2.88;100.00
498;BME280;39559;48.630;9.162;2023-02-02T00:26:47;98071.09;;;2.87;100.00
498;BME280;39559;48.630;9.162;2023-02-02T00:29:17;98066.84;;;2.86;100.00
498;BME280;39559;48.630;9.162;2023-02-02T00:31:43;98075.38;;;2.88;100.00
498;BME280;39559;48.630;9.162;2023-02-02T00:34:11;98081.34;;;2.87;100.00
498;BME280;39559;48.630;9.162;2023-02-02T00:36:37;98081.34;;;2.87;100.00
498;BME280;39559;48.630;9.162;2023-02-02T00:39:02;98089.94;;;2.86;100.00
498;BME280;39559;48.630;9.162;2023-02-02T00:43:15;98091.63;;;2.84;100.00
498;BME280;39559;48.630;9.162;2023-02-02T00:45:40;98101.91;;;2.82;100.00
498;BME280;39559;48.630;9.162;2023-02-02T00:48:06;98094.22;;;2.84;100.00
498;BME280;39559;48.630;9.162;2023-02-02T00:50:32;98096.78;;;2.84;100.00
498;BME280;39559;48.630;9.162;2023-02-02T00:52:57;98086.50;;;2.79;100.00
498;BME280;39559;48.630;9.162;2023-02-02T00:55:24;98094.19;;;2.78;100.00
498;BME280;39559;48.630;9.162;2023-02-02T00:57:50;98088.22;;;2.74;100.00
498;BME280;39559;48.630;9.162;2023-02-02T01:00:18;98095.91;;;2.76;100.00
498;BME280;39559;48.630;9.162;2023-02-02T01:02:45;98088.22;;;2.73;100.00
498;BME280;39559;48.630;9.162;2023-02-02T01:07:14;98092.50;;;2.72;100.00
498;BME280;39559;48.630;9.162;2023-02-02T01:09:40;98096.75;;;2.75;100.00
498;BME280;39559;48.630;9.162;2023-02-02T01:12:05;98080.53;;;2.76;100.00
498;BME280;39559;48.630;9.162;2023-02-02T01:14:31;98079.66;;;2.78;100.00
498;BME280;39559;48.630;9.162;2023-02-02T01:16:56;98084.81;;;2.77;100.00
498;BME280;39559;48.630;9.162;2023-02-02T01:19:22;98077.13;;;2.75;100.00
498;BME280;39559;48.630;9.162;2023-02-02T01:21:50;98084.81;;;2.75;100.00
498;BME280;39559;48.630;9.162;2023-02-02T01:24:16;98085.66;;;2.77;100.00
498;BME280;39559;48.630;9.162;2023-02-02T01:26:41;98089.06;;;2.75;100.00
498;BME280;39559;48.630;9.162;2023-02-02T01:31:17;98089.97;;;2.67;100.00
498;BME280;39559;48.630;9.162;2023-02-02T01:33:44;98101.94;;;2.64;100.00
498;BME280;39559;48.630;9.162;2023-02-02T01:36:13;98101.03;;;2.62;100.00
498;BME280;39559;48.630;9.162;2023-02-02T01:38:39;98100.19;;;2.61;100.00
498;BME280;39559;48.630;9.162;2023-02-02T01:41:05;98103.63;;;2.53;100.00
498;BME280;39559;48.630;9.162;2023-02-02T01:46:13;98101.94;;;2.50;100.00
498;BME280;39559;48.630;9.162;2023-02-02T01:48:42;98100.19;;;2.49;100.00
498;BME280;39559;48.630;9.162;2023-02-02T01:51:16;98100.22;;;2.46;100.00
498;BME280;39559;48.630;9.162;2023-02-02T01:55:18;98090.81;;;2.46;100.00
498;BME280;39559;48.630;9.162;2023-02-02T01:57:58;98090.81;;;2.45;100.00
498;BME280;39559;48.630;9.162;2023-02-02T02:00:25;98084.81;;;2.49;100.00
498;BME280;39559;48.630;9.162;2023-02-02T02:02:59;98095.94;;;2.46;100.00
498;BME280;39559;48.630;9.162;2023-02-02T02:05:30;98091.69;;;2.53;100.00
498;BME280;39559;48.630;9.162;2023-02-02T02:08:11;98087.41;;;2.55;100.00
498;BME280;39559;48.630;9.162;2023-02-02T02:10:38;98074.56;;;2.54;100.00
498;BME280;39559;48.630;9.162;2023-02-02T02:13:04;98063.44;;;2.55;100.00
498;BME280;39559;48.630;9.162;2023-02-02T02:15:41;98067.75;;;2.56;100.00
498;BME280;39559;48.630;9.162;2023-02-02T02:31:01;98098.50;;;2.57;100.00
498;BME280;39559;48.630;9.162;2023-02-02T02:33:56;98095.09;;;2.57;100.00
498;BME280;39559;48.630;9.162;2023-02-02T02:37:07;98099.38;;;2.64;100.00
498;BME280;39559;48.630;9.162;2023-02-02T02:39:35;98100.19;;;2.77;100.00
498;BME280;39559;48.630;9.162;2023-02-02T02:43:44;98103.59;;;2.82;100.00
498;BME280;39559;48.630;9.162;2023-02-02T02:46:09;98104.44;;;2.76;100.00
498;BME280;39559;48.630;9.162;2023-02-02T02:48:35;98098.47;;;2.73;100.00
498;BME280;39559;48.630;9.162;2023-02-02T02:51:08;98099.34;;;2.72;100.00
498;BME280;39559;48.630;9.162;2023-02-02T02:53:53;98092.50;;;2.74;100.00
498;BME280;39559;48.630;9.162;2023-02-02T02:56:27;98085.69;;;2.69;100.00
498;BME280;39559;48.630;9.162;2023-02-02T03:07:22;98095.06;;;2.77;100.00
498;BME280;39559;48.630;9.162;2023-02-02T03:09:51;98101.91;;;2.82;100.00
498;BME280;39559;48.630;9.162;2023-02-02T03:12:18;98089.06;;;2.84;100.00
498;BME280;39559;48.630;9.162;2023-02-02T03:14:44;98101.88;;;2.85;100.00
498;BME280;39559;48.630;9.162;2023-02-02T03:17:09;98089.09;;;2.73;100.00
498;BME280;39559;48.630;9.162;2023-02-02T03:19:35;98087.38;;;2.69;100.00
498;BME280;39559;48.630;9.162;2023-02-02T03:22:00;98086.53;;;2.73;100.00
498;BME280;39559;48.630;9.162;2023-02-02T03:24:26;98094.22;;;2.68;100.00
498;BME280;39559;48.630;9.162;2023-02-02T03:26:52;98091.66;;;2.72;100.00
498;BME280;39559;48.630;9.162;2023-02-02T03:31:17;98080.53;;;2.74;100.00
498;BME280;39559;48.630;9.162;2023-02-02T03:33:43;98081.38;;;2.75;100.00
498;BME280;39559;48.630;9.162;2023-02-02T03:36:08;98092.50;;;2.75;100.00
498;BME280;39559;48.630;9.162;2023-02-02T03:38:34;98083.94;;;2.78;100.00
498;BME280;39559;48.630;9.162;2023-02-02T03:40:59;98093.31;;;2.82;100.00
498;BME280;39559;48.630;9.162;2023-02-02T03:43:25;98096.78;;;2.82;100.00
498;BME280;39559;48.630;9.162;2023-02-02T03:45:55;98088.22;;;2.91;100.00
498;BME280;39559;48.630;9.162;2023-02-02T03:48:21;98090.75;;;2.83;100.00
498;BME280;39559;48.630;9.162;2023-02-02T03:50:46;98104.44;;;2.93;100.00
498;BME280;39559;48.630;9.162;2023-02-02T03:55:17;98100.13;;;3.04;100.00
498;BME280;39559;48.630;9.162;2023-02-02T03:57:42;98101.00;;;2.94;100.00
498;BME280;39559;48.630;9.162;2023-02-02T04:00:08;98101.88;;;2.93;100.00
498;BME280;39559;48.630;9.162;2023-02-02T04:02:34;98097.59;;;2.91;100.00
498;BME280;39559;48.630;9.162;2023-02-02T04:04:59;98096.75;;;2.92;100.00
498;BME280;39559;48.630;9.162;2023-02-02T04:07:25;98106.16;;;2.88;100.00
498;BME280;39559;48.630;9.162;2023-02-02T04:09:50;98103.59;;;2.85;100.00
498;BME280;39559;48.630;9.162;2023-02-02T04:12:16;98105.31;;;2.86;100.00
498;BME280;39559;48.630;9.162;2023-02-02T04:14:41;98107.03;;;2.84;100.00
498;BME280;39559;48.630;9.162;2023-02-02T04:19:17;98119.84;;;2.84;100.00
498;BME280;39559;48.630;9.162;2023-02-02T04:21:42;98118.13;;;2.91;100.00
498;BME280;39559;48.630;9.162;2023-02-02T04:24:12;98109.56;;;2.87;100.00
498;BME280;39559;48.630;9.162;2023-02-02T04:26:38;98104.44;;;2.88;100.00
498;BME280;39559;48.630;9.162;2023-02-02T04:29:03;98107.00;;;2.87;100.00
498;BME280;39559;48.630;9.162;2023-02-02T04:31:29;98106.16;;;2.88;100.00
498;BME280;39559;48.630;9.162;2023-02-02T04:33:55;98112.13;;;2.87;100.00
498;BME280;39559;48.630;9.162;2023-02-02T04:36:21;98122.41;;;2.90;100.00
498;BME280;39559;48.630;9.162;2023-02-02T04:38:53;98118.97;;;2.94;100.00
498;BME280;39559;48.630;9.162;2023-02-02T04:43:17;98135.22;;;2.93;100.00
498;BME280;39559;48.630;9.162;2023-02-02T04:45:43;98141.19;;;3.01;100.00
498;BME280;39559;48.630;9.162;2023-02-02T04:48:09;98136.06;;;2.98;100.00
498;BME280;39559;48.630;9.162;2023-02-02T04:50:35;98143.78;;;2.97;100.00
498;BME280;39559;48.630;9.162;2023-02-02T04:53:00;98139.47;;;2.94;100.00
498;BME280;39559;48.630;9.162;2023-02-02T04:55:26;98141.22;;;2.94;100.00
498;BME280;39559;48.630;9.162;2023-02-02T04:57:51;98145.47;;;2.99;100.00
498;BME280;39559;48.630;9.162;2023-02-02T05:00:17;98143.75;;;3.04;100.00
498;BME280;39559;48.630;9.162;2023-02-02T05:02:43;98139.47;;;3.05;100.00
498;BME280;39559;48.630;9.162;2023-02-02T05:07:17;98148.03;;;2.98;100.00
498;BME280;39559;48.630;9.162;2023-02-02T05:09:43;98137.78;;;3.04;100.00
498;BME280;39559;48.630;9.162;2023-02-02T05:12:08;98146.31;;;3.07;100.00
498;BME280;39559;48.630;9.162;2023-02-02T05:14:34;98148.00;;;3.07;100.00
498;BME280;39559;48.630;9.162;2023-02-02T05:17:02;98142.88;;;3.08;100.00
498;BME280;39559;48.630;9.162;2023-02-02T05:19:28;98151.47;;;3.07;100.00
498;BME280;39559;48.630;9.162;2023-02-02T05:21:53;98143.75;;;3.07;100.00
498;BME280;39559;48.630;9.162;2023-02-02T05:24:19;98146.28;;;3.09;100.00
498;BME280;39559;48.630;9.162;2023-02-02T05:26:45;98142.88;;;3.07;100.00
498;BME280;39559;48.630;9.162;2023-02-02T05:31:18;98162.56;;;3.10;100.00
498;BME280;39559;48.630;9.162;2023-02-02T05:33:44;98171.97;;;3.11;100.00
498;BME280;39559;48.630;9.162;2023-02-02T05:36:10;98157.44;;;3.11;100.00
498;BME280;39559;48.630;9.162;2023-02-02T05:38:39;98164.28;;;3.07;100.00
498;BME280;39559;48.630;9.162;2023-02-02T05:41:04;98159.97;;;3.13;100.00
498;BME280;39559;48.630;9.162;2023-02-02T05:43:31;98172.81;;;3.08;100.00
498;BME280;39559;48.630;9.162;2023-02-02T05:45:57;98172.81;;;3.13;100.00
498;BME280;39559;48.630;9.162;2023-02-02T05:48:22;98165.97;;;3.12;100.00
498;BME280;39559;48.630;9.162;2023-02-02T05:51:36;98175.38;;;3.13;100.00
498;BME280;39559;48.630;9.162;2023-02-02T05:55:18;98186.50;;;3.12;100.00
498;BME280;39559;48.630;9.162;2023-02-02T05:57:44;98191.63;;;3.08;100.00
498;BME280;39559;48.630;9.162;2023-02-02T06:00:10;98175.41;;;3.10;100.00
498;BME280;39559;48.630;9.162;2023-02-02T06:02:36;98183.94;;;3.08;100.00
498;BME280;39559;48.630;9.162;2023-02-02T06:05:01;98186.50;;;3.12;100.00
498;BME280;39559;48.630;9.162;2023-02-02T06:07:27;98183.09;;;3.08;100.00
498;BME280;39559;48.630;9.162;2023-02-02T06:09:53;98201.91;;;3.07;100.00
498;BME280;39559;48.630;9.162;2023-02-02T06:12:18;98194.19;;;3.05;100.00
498;BME280;39559;48.630;9.162;2023-02-02T06:14:44;98197.66;;;3.07;100.00
498;BME280;39559;48.630;9.162;2023-02-02T06:19:18;98204.47;;;3.12;100.00
498;BME280;39559;48.630;9.162;2023-02-02T06:21:43;98207.03;;;3.08;100.00
498;BME280;39559;48.630;9.162;2023-02-02T06:24:09;98208.75;;;3.10;100.00
498;BME280;39559;48.630;9.162;2023-02-02T06:26:34;98216.47;;;3.10;100.00
498;BME280;39559;48.630;9.162;2023-02-02T06:29:00;98205.34;;;3.04;100.00
498;BME280;39559;48.630;9.162;2023-02-02T06:31:25;98205.34;;;3.06;100.00
498;BME280;39559;48.630;9.162;2023-02-02T06:33:54;98203.63;;;3.03;100.00
498;BME280;39559;48.630;9.162;2023-02-02T06:36:20;98204.47;;;2.99;100.00
498;BME280;39559;48.630;9.162;2023-02-02T06:38:50;98211.31;;;3.02;100.00
498;BME280;39559;48.630;9.162;2023-02-02T06:43:19;98217.31;;;3.10;100.00
498;BME280;39559;48.630;9.162;2023-02-02T06:45:44;98216.44;;;3.05;100.00
498;BME280;39559;48.630;9.162;2023-02-02T06:48:11;98219.03;;;3.11;100.00
498;BME280;39559;48.630;9.162;2023-02-02T06:50:38;98225.88;;;3.06;100.00
498;BME280;39559;48.630;9.162;2023-02-02T06:53:04;98220.75;;;2.95;100.00
498;BME280;39559;48.630;9.162;2023-02-02T06:55:29;98225.88;;;2.92;100.00
498;BME280;39559;48.630;9.162;2023-02-02T06:57:59;98225.84;;;2.89;100.00
498;BME280;39559;48.630;9.162;2023-02-02T07:00:26;98223.28;;;2.92;100.00
498;BME280;39559;48.630;9.162;2023-02-02T07:02:53;98235.28;;;2.90;100.00
498;BME280;39559;48.630;9.162;2023-02-02T07:07:19;98233.56;;;2.87;100.00
498;BME280;39559;48.630;9.162;2023-02-02T07:09:44;98231.84;;;2.85;100.00
498;BME280;39559;48.630;9.162;2023-02-02T07:12:10;98226.72;;;2.85;100.00
498;BME280;39559;48.630;9.162;2023-02-02T07:14:35;98225.03;;;2.84;100.00
498;BME280;39559;48.630;9.162;2023-02-02T07:17:02;98230.97;;;2.81;100.00
498;BME280;39559;48.630;9.162;2023-02-02T07:19:27;98225.84;;;2.80;100.00
498;BME280;39559;48.630;9.162;2023-02-02T07:21:53;98234.41;;;2.79;100.00
498;BME280;39559;48.630;9.162;2023-02-02T07:24:18;98230.13;;;2.81;100.00
498;BME280;39559;48.630;9.162;2023-02-02T07:26:43;98223.28;;;2.80;100.00
498;BME280;39559;48.630;9.162;2023-02-02T07:31:21;98236.97;;;2.82;100.00
498;BME280;39559;48.630;9.162;2023-02-02T07:33:48;98233.56;;;2.83;100.00
498;BME280;39559;48.630;9.162;2023-02-02T07:36:21;98237.84;;;2.82;100.00
498;BME280;39559;48.630;9.162;2023-02-02T07:38:50;98246.41;;;2.87;100.00
498;BME280;39559;48.630;9.162;2023-02-02T07:41:18;98240.41;;;2.88;100.00
498;BME280;39559;48.630;9.162;2023-02-02T07:43:46;98250.66;;;2.87;100.00
498;BME280;39559;48.630;9.162;2023-02-02T07:46:12;98245.53;;;2.93;100.00
498;BME280;39559;48.630;9.162;2023-02-02T07:48:38;98251.53;;;2.86;100.00
498;BME280;39559;48.630;9.162;2023-02-02T07:51:07;98255.78;;;2.87;100.00
498;BME280;39559;48.630;9.162;2023-02-02T07:55:19;98266.91;;;2.92;100.00
498;BME280;39559;48.630;9.162;2023-02-02T07:57:45;98266.06;;;2.93;100.00
498;BME280;39559;48.630;9.162;2023-02-02T08:00:11;98266.06;;;3.01;100.00
498;BME280;39559;48.630;9.162;2023-02-02T08:02:40;98266.06;;;2.99;100.00
498;BME280;39559;48.630;9.162;2023-02-02T08:05:05;98265.22;;;3.00;100.00
498;BME280;39559;48.630;9.162;2023-02-02T08:07:34;98259.22;;;3.01;100.00
498;BME280;39559;48.630;9.162;2023-02-02T08:10:00;98247.25;;;3.00;100.00
498;BME280;39559;48.630;9.162;2023-02-02T08:12:25;98238.69;;;3.04;100.00
498;BME280;39559;48.630;9.162;2023-02-02T08:14:51;98239.53;;;3.03;100.00
498;BME280;39559;48.630;9.162;2023-02-02T08:19:19;98234.41;;;3.05;100.00
498;BME280;39559;48.630;9.162;2023-02-02T08:21:44;98233.56;;;3.06;100.00
498;BME280;39559;48.630;9.162;2023-02-02T08:24:10;98229.28;;;3.08;100.00
498;BME280;39559;48.630;9.162;2023-02-02T08:26:35;98233.56;;;3.14;100.00
498;BME280;39559;48.630;9.162;2023-02-02T08:29:04;98241.22;;;3.20;100.00
498;BME280;39559;48.630;9.162;2023-02-02T08:31:35;98235.25;;;3.27;100.00
498;BME280;39559;48.630;9.162;2023-02-02T08:34:02;98243.78;;;3.31;100.00
498;BME280;39559;48.630;9.162;2023-02-02T08:36:29;98245.50;;;3.38;100.00
498;BME280;39559;48.630;9.162;2023-02-02T08:38:58;98250.63;;;3.50;100.00
498;BME280;39559;48.630;9.162;2023-02-02T08:43:20;98255.72;;;3.61;100.00
498;BME280;39559;48.630;9.162;2023-02-02T08:45:46;98274.56;;;3.55;100.00
498;BME280;39559;48.630;9.162;2023-02-02T08:48:12;98276.25;;;3.65;100.00
498;BME280;39559;48.630;9.162;2023-02-02T08:50:39;98286.56;;;3.62;100.00
498;BME280;39559;48.630;9.162;2023-02-02T08:53:05;98275.41;;;3.63;100.00
498;BME280;39559;48.630;9.162;2023-02-02T08:55:30;98280.53;;;3.65;100.00
498;BME280;39559;48.630;9.162;2023-02-02T08:57:56;98272.00;;;3.66;100.00
498;BME280;39559;48.630;9.162;2023-02-02T09:00:21;98277.13;;;3.64;100.00
498;BME280;39559;48.630;9.162;2023-02-02T09:02:50;98283.09;;;3.70;100.00
498;BME280;39559;48.630;9.162;2023-02-02T09:07:20;98298.50;;;3.73;100.00
498;BME280;39559;48.630;9.162;2023-02-02T09:09:46;98303.66;;;3.71;100.00
498;BME280;39559;48.630;9.162;2023-02-02T09:12:11;98311.34;;;3.79;100.00
498;BME280;39559;48.630;9.162;2023-02-02T09:14:37;98312.22;;;3.73;100.00
498;BME280;39559;48.630;9.162;2023-02-02T09:17:02;98303.66;;;3.71;100.00
498;BME280;39559;48.630;9.162;2023-02-02T09:19:28;98317.34;;;3.69;100.00
498;BME280;39559;48.630;9.162;2023-02-02T09:21:53;98319.03;;;3.74;100.00
498;BME280;39559;48.630;9.162;2023-02-02T09:24:18;98319.06;;;3.71;100.00
498;BME280;39559;48.630;9.162;2023-02-02T09:26:44;98313.06;;;3.75;100.00
498;BME280;39559;48.630;9.162;2023-02-02T09:31:21;98315.59;;;3.83;100.00
498;BME280;39559;48.630;9.162;2023-02-02T09:33:47;98312.19;;;3.84;100.00
498;BME280;39559;48.630;9.162;2023-02-02T09:36:21;98320.75;;;3.86;100.00
498;BME280;39559;48.630;9.162;2023-02-02T09:38:48;98322.44;;;3.85;100.00
498;BME280;39559;48.630;9.162;2023-02-02T09:47:20;98331.91;;;3.71;100.00
498;BME280;39559;48.630;9.162;2023-02-02T09:55:32;98336.19;;;3.75;100.00
498;BME280;39559;48.630;9.162;2023-02-02T09:58:13;98351.59;;;3.75;100.00
498;BME280;39559;48.630;9.162;2023-02-02T10:00:50;98341.31;;;3.78;100.00
498;BME280;39559;48.630;9.162;2023-02-02T10:03:22;98342.16;;;3.82;100.00
498;BME280;39559;48.630;9.162;2023-02-02T10:08:39;98345.59;;;3.79;100.00
498;BME280;39559;48.630;9.162;2023-02-02T10:11:35;98347.31;;;3.70;100.00
498;BME280;39559;48.630;9.162;2023-02-02T10:14:07;98355.88;;;3.78;100.00
498;BME280;39559;48.630;9.162;2023-02-02T10:16:38;98361.00;;;3.78;100.00
498;BME280;39559;48.630;9.162;2023-02-02T10:19:22;98352.44;;;3.76;100.00
498;BME280;39559;48.630;9.162;2023-02-02T10:22:04;98364.47;;;3.66;100.00
498;BME280;39559;48.630;9.162;2023-02-02T10:24:35;98352.44;;;3.63;100.00
498;BME280;39559;48.630;9.162;2023-02-02T10:27:04;98359.31;;;3.64;100.00
498;BME280;39559;48.630;9.162;2023-02-02T10:29:52;98353.31;;;3.64;100.00
498;BME280;39559;48.630;9.162;2023-02-02T10:32:34;98356.72;;;3.60;100.00
498;BME280;39559;48.630;9.162;2023-02-02T10:38:18;98355.91;;;3.55;100.00
498;BME280;39559;48.630;9.162;2023-02-02T10:46:24;98376.44;;;3.49;100.00
498;BME280;39559;48.630;9.162;2023-02-02T10:48:59;98372.16;;;3.49;100.00
498;BME280;39559;48.630;9.162;2023-02-02T10:51:33;98367.03;;;3.54;100.00
498;BME280;39559;48.630;9.162;2023-02-02T10:54:01;98361.00;;;3.56;100.00
498;BME280;39559;48.630;9.162;2023-02-02T10:56:35;98368.72;;;3.61;100.00
498;BME280;39559;48.630;9.162;2023-02-02T10:59:08;98366.16;;;3.58;100.00
498;BME280;39559;48.630;9.162;2023-02-02T11:01:35;98370.47;;;3.60;100.00
498;BME280;39559;48.630;9.162;2023-02-02T11:04:01;98367.88;;;3.57;100.00
498;BME280;39559;48.630;9.162;2023-02-02T11:07:21;98367.88;;;3.67;100.00
498;BME280;39559;48.630;9.162;2023-02-02T11:09:46;98369.56;;;3.60;100.00
498;BME280;39559;48.630;9.162;2023-02-02T11:12:19;98368.72;;;3.58;100.00
498;BME280;39559;48.630;9.162;2023-02-02T11:14:50;98356.75;;;3.54;100.00
498;BME280;39559;48.630;9.162;2023-02-02T11:17:24;98363.63;;;3.55;100.00
498;BME280;39559;48.630;9.162;2023-02-02T11:19:52;98365.28;;;3.53;100.00
498;BME280;39559;48.630;9.162;2023-02-02T11:22:25;98367.03;;;3.54;100.00
498;BME280;39559;48.630;9.162;2023-02-02T11:24:53;98363.59;;;3.49;100.00
498;BME280;39559;48.630;9.162;2023-02-02T11:27:23;98360.16;;;3.43;100.00
498;BME280;39559;48.630;9.162;2023-02-02T11:31:35;98354.19;;;3.43;100.00
498;BME280;39559;48.630;9.162;2023-02-02T11:34:12;98367.88;;;3.51;100.00
498;BME280;39559;48.630;9.162;2023-02-02T11:36:39;98372.16;;;3.51;100.00
498;BME280;39559;48.630;9.162;2023-02-02T11:39:18;98373.03;;;3.50;100.00
498;BME280;39559;48.630;9.162;2023-02-02T11:41:44;98370.44;;;3.45;100.00
498;BME280;39559;48.630;9.162;2023-02-02T11:44:24;98370.44;;;3.57;100.00
498;BME280;39559;48.630;9.162;2023-02-02T11:46:51;98362.75;;;3.51;100.00
498;BME280;39559;48.630;9.162;2023-02-02T11:49:19;98365.31;;;3.45;100.00
498;BME280;39559;48.630;9.162;2023-02-02T11:52:00;98373.84;;;3.45;100.00
498;BME280;39559;48.630;9.162;2023-02-02T11:55:27;98373.88;;;3.42;100.00
498;BME280;39559;48.630;9.162;2023-02-02T12:00:45;98362.72;;;3.43;100.00
498;BME280;39559;48.630;9.162;2023-02-02T12:03:32;98359.31;;;3.46;100.00
498;BME280;39559;48.630;9.162;2023-02-02T12:05:58;98359.31;;;3.44;100.00
498;BME280;39559;48.630;9.162;2023-02-02T12:08:27;98358.47;;;3.49;100.00
498;BME280;39559;48.630;9.162;2023-02-02T12:11:02;98367.00;;;3.52;100.00
498;BME280;39559;48.630;9.162;2023-02-02T12:13:36;98357.59;;;3.46;100.00
498;BME280;39559;48.630;9.162;2023-02-02T12:16:30;98357.59;;;3.46;100.00
498;BME280;39559;48.630;9.162;2023-02-02T12:28:12;98344.75;;;3.65;100.00
498;BME280;39559;48.630;9.162;2023-02-02T12:33:37;98339.63;;;3.70;100.00
498;BME280;39559;48.630;9.162;2023-02-02T12:36:20;98337.91;;;3.73;100.00
498;BME280;39559;48.630;9.162;2023-02-02T12:39:19;98344.75;;;3.77;100.00
498;BME280;39559;48.630;9.162;2023-02-02T12:46:46;98346.44;;;3.84;100.00
498;BME280;39559;48.630;9.162;2023-02-02T12:52:22;98343.00;;;3.89;100.00
498;BME280;39559;48.630;9.162;2023-02-02T13:13:02;98348.16;;;3.93;100.00
498;BME280;39559;48.630;9.162;2023-02-02T13:15:45;98351.56;;;3.81;100.00
498;BME280;39559;48.630;9.162;2023-02-02T13:18:44;98358.41;;;3.89;100.00
498;BME280;39559;48.630;9.162;2023-02-02T13:21:13;98361.00;;;3.90;100.00
498;BME280;39559;48.630;9.162;2023-02-02T13:23:44;98351.59;;;3.84;100.00
498;BME280;39559;48.630;9.162;2023-02-02T13:26:22;98361.84;;;3.84;100.00
498;BME280;39559;48.630;9.162;2023-02-02T13:31:27;98369.56;;;3.80;100.00
498;BME280;39559;48.630;9.162;2023-02-02T13:36:55;98372.16;;;3.75;100.00
498;BME280;39559;48.630;9.162;2023-02-02T13:39:32;98381.56;;;3.78;100.00
498;BME280;39559;48.630;9.162;2023-02-02T13:42:01;98387.56;;;3.75;100.00
498;BME280;39559;48.630;9.162;2023-02-02T13:44:49;98390.13;;;3.74;100.00
498;BME280;39559;48.630;9.162;2023-02-02T13:47:41;98394.41;;;3.73;100.00
498;BME280;39559;48.630;9.162;2023-02-02T13:50:15;98391.84;;;3.79;100.00
498;BME280;39559;48.630;9.162;2023-02-02T13:55:42;98388.41;;;3.76;100.00
498;BME280;39559;48.630;9.162;2023-02-02T13:58:46;98390.13;;;3.78;100.00
498;BME280;39559;48.630;9.162;2023-02-02T14:01:14;98390.13;;;3.84;100.00
498;BME280;39559;48.630;9.162;2023-02-02T14:03:43;98391.81;;;3.89;100.00
498;BME280;39559;48.630;9.162;2023-02-02T14:06:20;98396.09;;;3.85;100.00
498;BME280;39559;48.630;9.162;2023-02-02T14:09:01;98399.53;;;3.89;100.00
498;BME280;39559;48.630;9.162;2023-02-02T14:11:32;98397.84;;;3.88;100.00
498;BME280;39559;48.630;9.162;2023-02-02T14:14:19;98400.38;;;3.97;100.00
498;BME280;39559;48.630;9.162;2023-02-02T14:26:56;98394.34;;;4.07;100.00
498;BME280;39559;48.630;9.162;2023-02-02T14:32:01;98402.94;;;4.18;100.00
498;BME280;39559;48.630;9.162;2023-02-02T14:34:42;98402.06;;;4.12;100.00
498;BME280;39559;48.630;9.162;2023-02-02T14:39:52;98404.63;;;4.22;100.00
498;BME280;39559;48.630;9.162;2023-02-02T14:43:50;98413.16;;;4.32;100.00
498;BME280;39559;48.630;9.162;2023-02-02T14:46:23;98408.91;;;4.31;100.00
498;BME280;39559;48.630;9.162;2023-02-02T14:51:25;98396.84;;;4.38;100.00
498;BME280;39559;48.630;9.162;2023-02-02T14:53:57;98403.72;;;4.37;100.00
498;BME280;39559;48.630;9.162;2023-02-02T14:56:41;98407.97;;;4.48;100.00
498;BME280;39559;48.630;9.162;2023-02-02T14:59:23;98410.56;;;4.48;100.00
498;BME280;39559;48.630;9.162;2023-02-02T15:04:28;98424.25;;;4.43;100.00
498;BME280;39559;48.630;9.162;2023-02-02T15:09:50;98419.13;;;4.45;100.00
498;BME280;39559;48.630;9.162;2023-02-02T15:12:18;98418.28;;;4.43;100.00
498;BME280;39559;48.630;9.162;2023-02-02T15:20:27;98427.72;;;4.38;100.00
498;BME280;39559;48.630;9.162;2023-02-02T15:25:26;98430.28;;;4.38;100.00
498;BME280;39559;48.630;9.162;2023-02-02T15:31:40;98432.00;;;4.33;100.00
498;BME280;39559;48.630;9.162;2023-02-02T15:34:21;98438.03;;;4.32;100.00
498;BME280;39559;48.630;9.162;2023-02-02T15:36:51;98434.56;;;4.36;100.00
498;BME280;39559;48.630;9.162;2023-02-02T15:39:40;98440.59;;;4.32;100.00
498;BME280;39559;48.630;9.162;2023-02-02T15:42:15;98441.44;;;4.31;100.00
498;BME280;39559;48.630;9.162;2023-02-02T15:45:01;98444.03;;;4.26;100.00
498;BME280;39559;48.630;9.162;2023-02-02T15:47:35;98441.47;;;4.23;100.00
498;BME280;39559;48.630;9.162;2023-02-02T15:50:03;98440.63;;;4.19;100.00
498;BME280;39559;48.630;9.162;2023-02-02T15:55:33;98445.75;;;4.19;100.00
498;BME280;39559;48.630;9.162;2023-02-02T15:58:19;98449.19;;;4.17;100.00
498;BME280;39559;48.630;9.162;2023-02-02T16:00:54;98459.47;;;4.17;100.00
498;BME280;39559;48.630;9.162;2023-02-02T16:03:25;98465.47;;;4.20;100.00
498;BME280;39559;48.630;9.162;2023-02-02T16:05:54;98477.47;;;4.18;100.00
498;BME280;39559;48.630;9.162;2023-02-02T16:08:26;98475.75;;;4.16;100.00
498;BME280;39559;48.630;9.162;2023-02-02T16:11:14;98492.91;;;4.15;100.00
498;BME280;39559;48.630;9.162;2023-02-02T16:13:45;98505.75;;;4.14;100.00
498;BME280;39559;48.630;9.162;2023-02-02T16:16:27;98504.91;;;4.12;100.00
498;BME280;39559;48.630;9.162;2023-02-02T16:19:22;98521.16;;;4.09;100.00
498;BME280;39559;48.630;9.162;2023-02-02T16:21:58;98525.47;;;4.12;100.00
498;BME280;39559;48.630;9.162;2023-02-02T16:27:01;98536.56;;;4.09;100.00
498;BME280;39559;48.630;9.162;2023-02-02T16:29:27;98538.31;;;4.10;100.00
498;BME280;39559;48.630;9.162;2023-02-02T16:31:54;98534.88;;;4.17;100.00
498;BME280;39559;48.630;9.162;2023-02-02T16:37:15;98549.44;;;4.06;100.00
498;BME280;39559;48.630;9.162;2023-02-02T16:39:41;98562.28;;;4.09;100.00
498;BME280;39559;48.630;9.162;2023-02-02T16:43:27;98572.56;;;4.09;100.00
498;BME280;39559;48.630;9.162;2023-02-02T16:46:06;98579.44;;;4.09;100.00